sensor_id;sensor_type;location;lat;lon;timestamp;pressure;altitude;pressure_sealevel;temperature;humidity
8294;BME280;4185;41.506;24.938;2022-08-19T00:02:10;93412.22;;;18.92;78.70
8294;BME280;4185;41.506;24.938;2022-08-19T00:04:37;93406.31;;;18.88;78.83
8294;BME280;4185;41.506;24.938;2022-08-19T00:07:06;93400.78;;;18.88;78.15
8294;BME280;4185;41.506;24.938;2022-08-19T00:09:34;93408.84;;;18.86;78.61
8294;BME280;4185;41.506;24.938;2022-08-19T00:12:01;93411.16;;;18.74;78.60
8294;BME280;4185;41.506;24.938;2022-08-19T00:14:28;93405.47;;;18.72;78.23
8294;BME280;4185;41.506;24.938;2022-08-19T00:16:57;93408.81;;;18.78;78.91
8294;BME280;4185;41.506;24.938;2022-08-19T00:19:24;93402.91;;;18.74;79.27
8294;BME280;4185;41.506;24.938;2022-08-19T00:21:51;93401.66;;;18.75;78.72
8294;BME280;4185;41.506;24.938;2022-08-19T00:24:20;93394.75;;;18.61;79.42
8294;BME280;4185;41.506;24.938;2022-08-19T00:26:48;93391.03;;;18.51;79.59
8294;BME280;4185;41.506;24.938;2022-08-19T00:29:17;93395.19;;;18.45;79.94
8294;BME280;4185;41.506;24.938;2022-08-19T00:31:45;93392.13;;;18.35;80.09
8294;BME280;4185;41.506;24.938;2022-08-19T00:34:13;93394.72;;;18.33;80.36
8294;BME280;4185;41.506;24.938;2022-08-19T00:36:40;93394.50;;;18.31;80.76
8294;BME280;4185;41.506;24.938;2022-08-19T00:39:07;93391.56;;;18.29;80.65
8294;BME280;4185;41.506;24.938;2022-08-19T00:41:35;93385.72;;;18.33;80.68
8294;BME280;4185;41.506;24.938;2022-08-19T00:44:05;93386.84;;;18.37;79.54
8294;BME280;4185;41.506;24.938;2022-08-19T00:46:33;93386.75;;;18.43;79.58
8294;BME280;4185;41.506;24.938;2022-08-19T00:49:06;93385.44;;;18.44;79.44
8294;BME280;4185;41.506;24.938;2022-08-19T00:51:34;93389.34;;;18.48;79.78
8294;BME280;4185;41.506;24.938;2022-08-19T00:54:02;93385.53;;;18.51;79.12
8294;BME280;4185;41.506;24.938;2022-08-19T00:56:30;93381.66;;;18.47;79.89
8294;BME280;4185;41.506;24.938;2022-08-19T00:58:59;93382.75;;;18.31;79.48
8294;BME280;4185;41.506;24.938;2022-08-19T01:01:27;93383.94;;;18.14;79.92
8294;BME280;4185;41.506;24.938;2022-08-19T01:03:54;93388.34;;;17.97;81.62
8294;BME280;4185;41.506;24.938;2022-08-19T01:06:21;93386.03;;;17.88;81.28
8294;BME280;4185;41.506;24.938;2022-08-19T01:08:48;93384.31;;;17.98;80.58
8294;BME280;4185;41.506;24.938;2022-08-19T01:11:15;93386.59;;;18.07;81.01
8294;BME280;4185;41.506;24.938;2022-08-19T01:13:42;93382.97;;;18.12;80.27
8294;BME280;4185;41.506;24.938;2022-08-19T01:16:11;93384.09;;;18.16;80.17
8294;BME280;4185;41.506;24.938;2022-08-19T01:18:40;93373.44;;;18.13;80.64
8294;BME280;4185;41.506;24.938;2022-08-19T01:21:17;93379.97;;;18.02;81.31
8294;BME280;4185;41.506;24.938;2022-08-19T01:23:46;93379.09;;;17.87;81.46
8294;BME280;4185;41.506;24.938;2022-08-19T01:26:16;93378.19;;;17.71;82.13
8294;BME280;4185;41.506;24.938;2022-08-19T01:28:45;93373.44;;;17.72;81.42
8294;BME280;4185;41.506;24.938;2022-08-19T01:31:16;93376.25;;;17.79;80.58
8294;BME280;4185;41.506;24.938;2022-08-19T01:33:44;93376.13;;;17.85;81.22
8294;BME280;4185;41.506;24.938;2022-08-19T01:36:14;93368.16;;;17.94;80.07
8294;BME280;4185;41.506;24.938;2022-08-19T01:38:43;93366.03;;;18.00;80.73
8294;BME280;4185;41.506;24.938;2022-08-19T01:41:13;93364.69;;;17.94;81.54
8294;BME280;4185;41.506;24.938;2022-08-19T01:43:40;93349.53;;;17.80;80.88
8294;BME280;4185;41.506;24.938;2022-08-19T01:46:07;93358.22;;;17.71;81.56
8294;BME280;4185;41.506;24.938;2022-08-19T01:48:34;93359.09;;;17.66;81.23
8294;BME280;4185;41.506;24.938;2022-08-19T01:51:02;93363.88;;;17.65;81.11
8294;BME280;4185;41.506;24.938;2022-08-19T01:53:29;93362.97;;;17.50;81.44
8294;BME280;4185;41.506;24.938;2022-08-19T01:55:56;93364.97;;;17.49;81.88
8294;BME280;4185;41.506;24.938;2022-08-19T01:58:29;93364.75;;;17.47;82.18
8294;BME280;4185;41.506;24.938;2022-08-19T02:00:58;93357.47;;;17.50;81.71
8294;BME280;4185;41.506;24.938;2022-08-19T02:03:25;93366.53;;;17.58;82.50
8294;BME280;4185;41.506;24.938;2022-08-19T02:05:56;93366.41;;;17.63;81.67
8294;BME280;4185;41.506;24.938;2022-08-19T02:08:25;93365.31;;;17.66;81.72
8294;BME280;4185;41.506;24.938;2022-08-19T02:10:52;93370.00;;;17.58;81.74
8294;BME280;4185;41.506;24.938;2022-08-19T02:13:19;93363.56;;;17.56;81.38
8294;BME280;4185;41.506;24.938;2022-08-19T02:15:48;93364.22;;;17.49;81.92
8294;BME280;4185;41.506;24.938;2022-08-19T02:18:14;93365.41;;;17.40;82.72
8294;BME280;4185;41.506;24.938;2022-08-19T02:20:42;93376.72;;;17.37;82.81
8294;BME280;4185;41.506;24.938;2022-08-19T02:23:10;93373.31;;;17.31;82.89
8294;BME280;4185;41.506;24.938;2022-08-19T02:25:38;93381.25;;;17.34;83.41
8294;BME280;4185;41.506;24.938;2022-08-19T02:28:05;93385.28;;;17.33;83.37
8294;BME280;4185;41.506;24.938;2022-08-19T02:30:32;93391.28;;;17.32;83.24
8294;BME280;4185;41.506;24.938;2022-08-19T02:33:00;93391.09;;;17.30;82.69
8294;BME280;4185;41.506;24.938;2022-08-19T02:35:27;93389.41;;;17.27;82.61
8294;BME280;4185;41.506;24.938;2022-08-19T02:37:54;93381.69;;;17.25;82.41
8294;BME280;4185;41.506;24.938;2022-08-19T02:40:38;93387.50;;;17.22;82.39
8294;BME280;4185;41.506;24.938;2022-08-19T02:43:07;93389.72;;;17.23;82.64
8294;BME280;4185;41.506;24.938;2022-08-19T02:45:36;93385.81;;;17.19;82.64
8294;BME280;4185;41.506;24.938;2022-08-19T02:48:04;93396.19;;;17.13;82.57
8294;BME280;4185;41.506;24.938;2022-08-19T02:50:32;93400.16;;;17.12;82.23
8294;BME280;4185;41.506;24.938;2022-08-19T02:52:58;93396.16;;;17.26;82.11
8294;BME280;4185;41.506;24.938;2022-08-19T02:55:25;93404.59;;;17.28;81.68
8294;BME280;4185;41.506;24.938;2022-08-19T02:57:52;93400.16;;;17.25;81.41
8294;BME280;4185;41.506;24.938;2022-08-19T03:00:19;93399.22;;;17.22;81.59
8294;BME280;4185;41.506;24.938;2022-08-19T03:02:46;93394.69;;;17.12;81.78
8294;BME280;4185;41.506;24.938;2022-08-19T03:05:15;93401.88;;;17.01;82.56
8294;BME280;4185;41.506;24.938;2022-08-19T03:07:42;93404.00;;;16.95;82.31
8294;BME280;4185;41.506;24.938;2022-08-19T03:10:09;93405.47;;;16.96;81.73
8294;BME280;4185;41.506;24.938;2022-08-19T03:12:37;93402.53;;;16.94;82.00
8294;BME280;4185;41.506;24.938;2022-08-19T03:15:06;93405.16;;;17.00;82.21
8294;BME280;4185;41.506;24.938;2022-08-19T03:17:33;93406.84;;;17.03;83.12
8294;BME280;4185;41.506;24.938;2022-08-19T03:20:00;93399.56;;;17.05;83.11
8294;BME280;4185;41.506;24.938;2022-08-19T03:22:29;93403.91;;;17.01;81.10
8294;BME280;4185;41.506;24.938;2022-08-19T03:24:56;93403.47;;;16.84;81.59
8294;BME280;4185;41.506;24.938;2022-08-19T03:27:22;93410.31;;;16.64;82.59
8294;BME280;4185;41.506;24.938;2022-08-19T03:29:49;93408.22;;;16.57;82.89
8294;BME280;4185;41.506;24.938;2022-08-19T03:32:16;93411.91;;;16.60;83.72
8294;BME280;4185;41.506;24.938;2022-08-19T03:34:43;93408.63;;;16.61;83.47
8294;BME280;4185;41.506;24.938;2022-08-19T03:37:11;93406.72;;;16.69;83.61
8294;BME280;4185;41.506;24.938;2022-08-19T03:39:40;93403.81;;;16.67;83.56
8294;BME280;4185;41.506;24.938;2022-08-19T03:42:09;93408.63;;;16.74;83.56
8294;BME280;4185;41.506;24.938;2022-08-19T03:44:36;93410.03;;;16.81;83.27
8294;BME280;4185;41.506;24.938;2022-08-19T03:47:04;93412.44;;;16.84;82.45
8294;BME280;4185;41.506;24.938;2022-08-19T03:49:32;93414.84;;;16.88;82.70
8294;BME280;4185;41.506;24.938;2022-08-19T03:52:00;93409.19;;;16.86;82.73
8294;BME280;4185;41.506;24.938;2022-08-19T03:54:28;93411.63;;;16.89;82.42
8294;BME280;4185;41.506;24.938;2022-08-19T03:56:57;93417.72;;;16.82;82.73
8294;BME280;4185;41.506;24.938;2022-08-19T03:59:26;93416.38;;;16.76;82.98
8294;BME280;4185;41.506;24.938;2022-08-19T04:01:54;93410.34;;;16.77;83.43
8294;BME280;4185;41.506;24.938;2022-08-19T04:04:21;93419.09;;;16.76;83.21
8294;BME280;4185;41.506;24.938;2022-08-19T04:06:48;93415.41;;;16.73;83.06
8294;BME280;4185;41.506;24.938;2022-08-19T04:09:17;93425.94;;;16.69;83.73
8294;BME280;4185;41.506;24.938;2022-08-19T04:11:46;93429.50;;;16.64;83.49
8294;BME280;4185;41.506;24.938;2022-08-19T04:14:17;93427.44;;;16.70;83.73
8294;BME280;4185;41.506;24.938;2022-08-19T04:16:45;93436.91;;;16.69;83.50
8294;BME280;4185;41.506;24.938;2022-08-19T04:19:13;93432.91;;;16.70;83.82
8294;BME280;4185;41.506;24.938;2022-08-19T04:21:40;93432.91;;;16.70;83.98
8294;BME280;4185;41.506;24.938;2022-08-19T04:24:09;93438.41;;;16.70;83.28
8294;BME280;4185;41.506;24.938;2022-08-19T04:26:36;93431.09;;;16.73;83.51
8294;BME280;4185;41.506;24.938;2022-08-19T04:29:06;93428.38;;;16.73;83.05
8294;BME280;4185;41.506;24.938;2022-08-19T04:31:35;93429.94;;;16.81;82.51
8294;BME280;4185;41.506;24.938;2022-08-19T04:34:04;93438.41;;;16.83;83.68
8294;BME280;4185;41.506;24.938;2022-08-19T04:36:33;93435.66;;;16.83;83.66
8294;BME280;4185;41.506;24.938;2022-08-19T04:39:04;93433.13;;;16.85;83.29
8294;BME280;4185;41.506;24.938;2022-08-19T04:41:31;93434.38;;;16.84;83.72
8294;BME280;4185;41.506;24.938;2022-08-19T04:44:15;93443.25;;;16.90;84.00
8294;BME280;4185;41.506;24.938;2022-08-19T04:46:46;93432.91;;;16.96;83.89
8294;BME280;4185;41.506;24.938;2022-08-19T04:49:14;93421.53;;;16.92;83.63
8294;BME280;4185;41.506;24.938;2022-08-19T04:51:43;93420.56;;;16.90;83.82
8294;BME280;4185;41.506;24.938;2022-08-19T04:54:11;93426.78;;;16.90;84.24
8294;BME280;4185;41.506;24.938;2022-08-19T04:56:39;93431.88;;;16.99;83.50
8294;BME280;4185;41.506;24.938;2022-08-19T04:59:06;93431.53;;;17.16;82.89
8294;BME280;4185;41.506;24.938;2022-08-19T05:01:34;93429.84;;;17.26;82.55
8294;BME280;4185;41.506;24.938;2022-08-19T05:04:05;93426.13;;;17.37;82.47
8294;BME280;4185;41.506;24.938;2022-08-19T05:06:33;93427.81;;;17.53;81.77
8294;BME280;4185;41.506;24.938;2022-08-19T05:09:00;93429.78;;;17.65;81.86
8294;BME280;4185;41.506;24.938;2022-08-19T05:11:29;93427.31;;;17.75;81.84
8294;BME280;4185;41.506;24.938;2022-08-19T05:13:56;93426.25;;;17.78;82.00
8294;BME280;4185;41.506;24.938;2022-08-19T05:16:25;93415.47;;;17.80;82.23
8294;BME280;4185;41.506;24.938;2022-08-19T05:18:53;93424.44;;;17.80;82.61
8294;BME280;4185;41.506;24.938;2022-08-19T05:21:40;93412.72;;;17.80;83.80
8294;BME280;4185;41.506;24.938;2022-08-19T05:24:25;93414.59;;;17.85;83.55
8294;BME280;4185;41.506;24.938;2022-08-19T05:26:52;93415.41;;;17.93;83.09
8294;BME280;4185;41.506;24.938;2022-08-19T05:29:24;93420.44;;;18.02;82.84
8294;BME280;4185;41.506;24.938;2022-08-19T05:31:52;93419.34;;;18.18;82.76
8294;BME280;4185;41.506;24.938;2022-08-19T05:34:21;93410.38;;;18.25;83.16
8294;BME280;4185;41.506;24.938;2022-08-19T05:36:52;93412.13;;;18.36;83.06
8294;BME280;4185;41.506;24.938;2022-08-19T05:39:24;93419.63;;;18.48;81.60
8294;BME280;4185;41.506;24.938;2022-08-19T05:41:54;93422.28;;;18.61;81.59
8294;BME280;4185;41.506;24.938;2022-08-19T05:44:23;93411.50;;;18.71;81.96
8294;BME280;4185;41.506;24.938;2022-08-19T05:46:51;93414.66;;;18.75;82.14
8294;BME280;4185;41.506;24.938;2022-08-19T05:49:21;93397.66;;;18.84;82.23
8294;BME280;4185;41.506;24.938;2022-08-19T05:51:50;93400.84;;;18.95;82.80
8294;BME280;4185;41.506;24.938;2022-08-19T05:54:18;93404.94;;;19.09;81.84
8294;BME280;4185;41.506;24.938;2022-08-19T05:56:45;93406.66;;;19.20;81.70
8294;BME280;4185;41.506;24.938;2022-08-19T05:59:14;93407.66;;;19.30;81.68
8294;BME280;4185;41.506;24.938;2022-08-19T06:01:45;93408.06;;;19.41;81.03
8294;BME280;4185;41.506;24.938;2022-08-19T06:04:16;93407.56;;;19.51;80.28
8294;BME280;4185;41.506;24.938;2022-08-19T06:06:44;93415.88;;;19.58;80.07
8294;BME280;4185;41.506;24.938;2022-08-19T06:09:13;93402.31;;;19.68;80.22
8294;BME280;4185;41.506;24.938;2022-08-19T06:11:42;93407.50;;;19.79;78.96
8294;BME280;4185;41.506;24.938;2022-08-19T06:14:11;93409.69;;;19.88;78.30
8294;BME280;4185;41.506;24.938;2022-08-19T06:16:39;93405.31;;;20.00;78.95
8294;BME280;4185;41.506;24.938;2022-08-19T06:19:13;93409.00;;;20.10;80.14
8294;BME280;4185;41.506;24.938;2022-08-19T06:21:42;93404.25;;;20.18;80.03
8294;BME280;4185;41.506;24.938;2022-08-19T06:24:11;93412.00;;;20.27;79.30
8294;BME280;4185;41.506;24.938;2022-08-19T06:26:43;93396.94;;;20.35;79.17
8294;BME280;4185;41.506;24.938;2022-08-19T06:29:12;93406.88;;;20.46;80.02
8294;BME280;4185;41.506;24.938;2022-08-19T06:31:41;93405.03;;;20.56;78.64
8294;BME280;4185;41.506;24.938;2022-08-19T06:34:08;93397.28;;;20.62;78.06
8294;BME280;4185;41.506;24.938;2022-08-19T06:36:38;93399.13;;;20.75;76.68
8294;BME280;4185;41.506;24.938;2022-08-19T06:39:07;93400.59;;;20.83;76.23
8294;BME280;4185;41.506;24.938;2022-08-19T06:41:35;93397.44;;;20.94;76.71
8294;BME280;4185;41.506;24.938;2022-08-19T06:44:05;93403.88;;;21.04;76.67
8294;BME280;4185;41.506;24.938;2022-08-19T06:46:32;93404.22;;;21.16;77.04
8294;BME280;4185;41.506;24.938;2022-08-19T06:48:59;93403.66;;;21.25;75.49
8294;BME280;4185;41.506;24.938;2022-08-19T06:51:26;93404.16;;;21.38;74.84
8294;BME280;4185;41.506;24.938;2022-08-19T06:53:55;93409.13;;;21.47;74.05
8294;BME280;4185;41.506;24.938;2022-08-19T06:56:23;93395.63;;;21.59;73.54
8294;BME280;4185;41.506;24.938;2022-08-19T06:58:56;93390.03;;;21.66;73.70
8294;BME280;4185;41.506;24.938;2022-08-19T07:01:24;93391.47;;;21.83;72.57
8294;BME280;4185;41.506;24.938;2022-08-19T07:03:51;93390.50;;;21.95;72.65
8294;BME280;4185;41.506;24.938;2022-08-19T07:06:18;93385.09;;;22.05;71.20
8294;BME280;4185;41.506;24.938;2022-08-19T07:08:46;93384.63;;;22.16;70.40
8294;BME280;4185;41.506;24.938;2022-08-19T07:11:16;93375.72;;;22.25;69.80
8294;BME280;4185;41.506;24.938;2022-08-19T07:13:44;93377.50;;;22.37;69.59
8294;BME280;4185;41.506;24.938;2022-08-19T07:16:17;93375.16;;;22.51;69.62
8294;BME280;4185;41.506;24.938;2022-08-19T07:18:47;93377.28;;;22.67;66.44
8294;BME280;4185;41.506;24.938;2022-08-19T07:21:18;93372.47;;;22.85;65.01
8294;BME280;4185;41.506;24.938;2022-08-19T07:23:46;93369.41;;;22.98;63.76
8294;BME280;4185;41.506;24.938;2022-08-19T07:26:14;93369.09;;;23.11;63.55
8294;BME280;4185;41.506;24.938;2022-08-19T07:28:41;93374.88;;;23.23;63.56
8294;BME280;4185;41.506;24.938;2022-08-19T07:31:10;93375.31;;;23.36;60.62
8294;BME280;4185;41.506;24.938;2022-08-19T07:33:37;93372.03;;;23.47;60.24
8294;BME280;4185;41.506;24.938;2022-08-19T07:36:07;93365.91;;;23.66;61.65
8294;BME280;4185;41.506;24.938;2022-08-19T07:38:37;93367.91;;;23.82;58.65
8294;BME280;4185;41.506;24.938;2022-08-19T07:41:05;93370.66;;;23.99;58.99
8294;BME280;4185;41.506;24.938;2022-08-19T07:43:32;93374.50;;;24.13;59.96
8294;BME280;4185;41.506;24.938;2022-08-19T07:45:59;93377.78;;;24.20;58.54
8294;BME280;4185;41.506;24.938;2022-08-19T07:48:27;93362.47;;;24.28;57.93
8294;BME280;4185;41.506;24.938;2022-08-19T07:50:56;93372.59;;;24.43;58.85
8294;BME280;4185;41.506;24.938;2022-08-19T07:53:25;93369.75;;;24.60;58.26
8294;BME280;4185;41.506;24.938;2022-08-19T07:55:52;93363.53;;;24.78;59.39
8294;BME280;4185;41.506;24.938;2022-08-19T07:58:25;93358.13;;;24.90;56.96
8294;BME280;4185;41.506;24.938;2022-08-19T08:00:53;93366.34;;;24.97;57.61
8294;BME280;4185;41.506;24.938;2022-08-19T08:03:21;93356.56;;;25.06;55.04
8294;BME280;4185;41.506;24.938;2022-08-19T08:06:10;93339.31;;;25.07;55.02
8294;BME280;4185;41.506;24.938;2022-08-19T08:09:05;93365.50;;;25.33;55.09
8294;BME280;4185;41.506;24.938;2022-08-19T08:11:47;93355.31;;;25.45;55.32
8294;BME280;4185;41.506;24.938;2022-08-19T08:14:16;93364.63;;;25.59;57.16
8294;BME280;4185;41.506;24.938;2022-08-19T08:16:44;93366.84;;;25.70;55.54
8294;BME280;4185;41.506;24.938;2022-08-19T08:19:11;93367.97;;;25.86;54.57
8294;BME280;4185;41.506;24.938;2022-08-19T08:21:40;93363.88;;;25.97;53.72
8294;BME280;4185;41.506;24.938;2022-08-19T08:24:09;93366.38;;;26.02;50.95
8294;BME280;4185;41.506;24.938;2022-08-19T08:26:37;93366.78;;;26.18;50.42
8294;BME280;4185;41.506;24.938;2022-08-19T08:29:04;93364.25;;;26.31;50.51
8294;BME280;4185;41.506;24.938;2022-08-19T08:31:33;93360.06;;;26.52;49.71
8294;BME280;4185;41.506;24.938;2022-08-19T08:34:00;93362.50;;;26.67;49.84
8294;BME280;4185;41.506;24.938;2022-08-19T08:36:27;93363.44;;;26.81;49.21
8294;BME280;4185;41.506;24.938;2022-08-19T08:38:54;93356.84;;;26.86;49.31
8294;BME280;4185;41.506;24.938;2022-08-19T08:41:33;93362.03;;;27.01;48.56
8294;BME280;4185;41.506;24.938;2022-08-19T08:44:02;93358.50;;;27.21;48.24
8294;BME280;4185;41.506;24.938;2022-08-19T08:46:35;93365.03;;;27.35;47.59
8294;BME280;4185;41.506;24.938;2022-08-19T08:49:12;93363.38;;;27.42;45.98
8294;BME280;4185;41.506;24.938;2022-08-19T08:51:47;93353.78;;;27.45;46.53
8294;BME280;4185;41.506;24.938;2022-08-19T08:54:18;93359.78;;;27.51;45.68
8294;BME280;4185;41.506;24.938;2022-08-19T08:56:49;93354.47;;;27.55;45.48
8294;BME280;4185;41.506;24.938;2022-08-19T08:59:21;93353.63;;;27.64;46.37
8294;BME280;4185;41.506;24.938;2022-08-19T09:01:50;93349.22;;;27.82;46.18
8294;BME280;4185;41.506;24.938;2022-08-19T09:04:17;93351.22;;;27.91;45.02
8294;BME280;4185;41.506;24.938;2022-08-19T09:06:49;93353.06;;;27.98;45.01
8294;BME280;4185;41.506;24.938;2022-08-19T09:09:21;93341.06;;;28.07;45.25
8294;BME280;4185;41.506;24.938;2022-08-19T09:12:02;93338.75;;;28.15;44.11
8294;BME280;4185;41.506;24.938;2022-08-19T09:14:37;93340.59;;;28.22;44.96
8294;BME280;4185;41.506;24.938;2022-08-19T09:17:07;93338.91;;;28.40;43.13
8294;BME280;4185;41.506;24.938;2022-08-19T09:19:35;93339.69;;;28.52;44.25
8294;BME280;4185;41.506;24.938;2022-08-19T09:22:02;93340.16;;;28.60;43.20
8294;BME280;4185;41.506;24.938;2022-08-19T09:24:30;93340.88;;;28.72;43.82
8294;BME280;4185;41.506;24.938;2022-08-19T09:26:58;93340.41;;;28.76;43.34
8294;BME280;4185;41.506;24.938;2022-08-19T09:29:25;93333.09;;;28.83;43.74
8294;BME280;4185;41.506;24.938;2022-08-19T09:31:52;93329.31;;;28.90;43.96
8294;BME280;4185;41.506;24.938;2022-08-19T09:34:20;93328.72;;;28.91;42.13
8294;BME280;4185;41.506;24.938;2022-08-19T09:36:47;93328.34;;;28.97;42.31
8294;BME280;4185;41.506;24.938;2022-08-19T09:39:18;93335.50;;;29.00;42.81
8294;BME280;4185;41.506;24.938;2022-08-19T09:41:45;93332.59;;;29.09;42.94
8294;BME280;4185;41.506;24.938;2022-08-19T09:44:13;93328.31;;;29.20;42.11
8294;BME280;4185;41.506;24.938;2022-08-19T09:46:40;93324.53;;;29.27;42.75
8294;BME280;4185;41.506;24.938;2022-08-19T09:49:07;93328.91;;;29.30;40.84
8294;BME280;4185;41.506;24.938;2022-08-19T09:51:34;93328.91;;;29.30;41.12
8294;BME280;4185;41.506;24.938;2022-08-19T09:54:02;93324.88;;;29.33;40.60
8294;BME280;4185;41.506;24.938;2022-08-19T09:56:30;93318.91;;;29.38;41.56
8294;BME280;4185;41.506;24.938;2022-08-19T09:58:58;93315.84;;;29.46;41.13
8294;BME280;4185;41.506;24.938;2022-08-19T10:01:29;93322.63;;;29.54;40.57
8294;BME280;4185;41.506;24.938;2022-08-19T10:03:58;93322.22;;;29.60;40.62
8294;BME280;4185;41.506;24.938;2022-08-19T10:06:27;93324.16;;;29.69;41.58
8294;BME280;4185;41.506;24.938;2022-08-19T10:08:58;93324.53;;;29.75;40.85
8294;BME280;4185;41.506;24.938;2022-08-19T10:11:25;93316.56;;;29.83;41.84
8294;BME280;4185;41.506;24.938;2022-08-19T10:13:53;93313.25;;;29.86;40.84
8294;BME280;4185;41.506;24.938;2022-08-19T10:16:21;93310.38;;;29.98;40.89
8294;BME280;4185;41.506;24.938;2022-08-19T10:18:50;93310.19;;;30.08;39.64
8294;BME280;4185;41.506;24.938;2022-08-19T10:21:21;93311.38;;;30.16;39.06
8294;BME280;4185;41.506;24.938;2022-08-19T10:23:51;93315.00;;;30.19;38.70
8294;BME280;4185;41.506;24.938;2022-08-19T10:26:20;93311.47;;;30.18;39.13
8294;BME280;4185;41.506;24.938;2022-08-19T10:28:47;93305.72;;;30.28;40.10
8294;BME280;4185;41.506;24.938;2022-08-19T10:31:18;93307.50;;;30.48;40.97
8294;BME280;4185;41.506;24.938;2022-08-19T10:33:46;93306.91;;;30.63;39.17
8294;BME280;4185;41.506;24.938;2022-08-19T10:36:16;93304.00;;;30.75;40.65
8294;BME280;4185;41.506;24.938;2022-08-19T10:38:44;93301.53;;;30.81;37.69
8294;BME280;4185;41.506;24.938;2022-08-19T10:41:14;93302.28;;;30.81;37.03
8294;BME280;4185;41.506;24.938;2022-08-19T10:43:42;93296.41;;;30.77;38.23
8294;BME280;4185;41.506;24.938;2022-08-19T10:46:13;93293.31;;;30.71;38.12
8294;BME280;4185;41.506;24.938;2022-08-19T10:48:41;93293.34;;;30.85;38.90
8294;BME280;4185;41.506;24.938;2022-08-19T10:51:09;93279.63;;;30.91;39.58
8294;BME280;4185;41.506;24.938;2022-08-19T10:53:55;93288.72;;;31.19;37.93
8294;BME280;4185;41.506;24.938;2022-08-19T10:56:22;93288.59;;;31.30;38.24
8294;BME280;4185;41.506;24.938;2022-08-19T10:59:07;93285.06;;;31.43;37.54
8294;BME280;4185;41.506;24.938;2022-08-19T11:01:34;93284.53;;;31.47;37.58
8294;BME280;4185;41.506;24.938;2022-08-19T11:04:02;93286.16;;;31.52;37.76
8294;BME280;4185;41.506;24.938;2022-08-19T11:06:31;93285.28;;;31.63;36.06
8294;BME280;4185;41.506;24.938;2022-08-19T11:08:59;93287.66;;;31.68;37.53
8294;BME280;4185;41.506;24.938;2022-08-19T11:11:27;93283.16;;;31.77;35.76
8294;BME280;4185;41.506;24.938;2022-08-19T11:13:54;93279.72;;;31.78;35.78
8294;BME280;4185;41.506;24.938;2022-08-19T11:16:23;93281.34;;;31.83;36.73
8294;BME280;4185;41.506;24.938;2022-08-19T11:18:54;93273.91;;;31.88;35.89
8294;BME280;4185;41.506;24.938;2022-08-19T11:21:26;93263.03;;;31.96;35.75
8294;BME280;4185;41.506;24.938;2022-08-19T11:23:57;93269.03;;;32.19;36.39
8294;BME280;4185;41.506;24.938;2022-08-19T11:26:26;93273.84;;;32.33;35.75
8294;BME280;4185;41.506;24.938;2022-08-19T11:28:54;93275.47;;;32.38;36.50
8294;BME280;4185;41.506;24.938;2022-08-19T11:31:23;93275.66;;;32.26;34.58
8294;BME280;4185;41.506;24.938;2022-08-19T11:33:51;93266.03;;;32.31;35.44
8294;BME280;4185;41.506;24.938;2022-08-19T11:36:20;93253.69;;;32.22;34.97
8294;BME280;4185;41.506;24.938;2022-08-19T11:38:47;93268.56;;;32.09;34.34
8294;BME280;4185;41.506;24.938;2022-08-19T11:41:16;93265.97;;;32.13;34.52
8294;BME280;4185;41.506;24.938;2022-08-19T11:43:44;93268.59;;;32.25;35.09
8294;BME280;4185;41.506;24.938;2022-08-19T11:46:13;93268.06;;;32.44;34.76
8294;BME280;4185;41.506;24.938;2022-08-19T11:48:41;93270.41;;;32.50;33.66
8294;BME280;4185;41.506;24.938;2022-08-19T11:51:11;93265.34;;;32.62;34.31
8294;BME280;4185;41.506;24.938;2022-08-19T11:53:38;93276.72;;;32.81;33.41
8294;BME280;4185;41.506;24.938;2022-08-19T11:56:07;93262.59;;;32.79;32.84
8294;BME280;4185;41.506;24.938;2022-08-19T11:58:35;93262.41;;;32.75;33.36
8294;BME280;4185;41.506;24.938;2022-08-19T12:01:10;93262.50;;;32.77;33.41
8294;BME280;4185;41.506;24.938;2022-08-19T12:03:41;93260.22;;;32.89;33.11
8294;BME280;4185;41.506;24.938;2022-08-19T12:06:10;93255.13;;;33.01;32.85
8294;BME280;4185;41.506;24.938;2022-08-19T12:08:38;93255.72;;;33.15;32.34
8294;BME280;4185;41.506;24.938;2022-08-19T12:11:06;93249.53;;;33.19;32.49
8294;BME280;4185;41.506;24.938;2022-08-19T12:13:34;93242.13;;;33.27;33.10
8294;BME280;4185;41.506;24.938;2022-08-19T12:16:07;93238.91;;;33.17;32.35
8294;BME280;4185;41.506;24.938;2022-08-19T12:18:34;93253.91;;;33.40;33.16
8294;BME280;4185;41.506;24.938;2022-08-19T12:21:02;93242.28;;;33.47;32.85
8294;BME280;4185;41.506;24.938;2022-08-19T12:23:30;93245.72;;;33.46;32.11
8294;BME280;4185;41.506;24.938;2022-08-19T12:25:57;93249.56;;;33.37;31.56
8294;BME280;4185;41.506;24.938;2022-08-19T12:28:24;93239.81;;;33.40;31.69
8294;BME280;4185;41.506;24.938;2022-08-19T12:30:51;93237.44;;;33.50;32.64
8294;BME280;4185;41.506;24.938;2022-08-19T12:33:20;93235.50;;;33.54;32.77
8294;BME280;4185;41.506;24.938;2022-08-19T12:35:50;93244.03;;;33.56;30.74
8294;BME280;4185;41.506;24.938;2022-08-19T12:38:17;93236.22;;;33.72;32.11
8294;BME280;4185;41.506;24.938;2022-08-19T12:40:45;93229.03;;;33.87;30.96
8294;BME280;4185;41.506;24.938;2022-08-19T12:43:16;93225.13;;;33.94;31.37
8294;BME280;4185;41.506;24.938;2022-08-19T12:45:43;93232.66;;;34.07;30.44
8294;BME280;4185;41.506;24.938;2022-08-19T12:48:11;93234.84;;;33.91;30.42
8294;BME280;4185;41.506;24.938;2022-08-19T12:50:42;93234.38;;;33.96;30.85
8294;BME280;4185;41.506;24.938;2022-08-19T12:53:10;93239.31;;;33.96;30.88
8294;BME280;4185;41.506;24.938;2022-08-19T12:55:38;93237.91;;;33.97;30.09
8294;BME280;4185;41.506;24.938;2022-08-19T12:58:05;93242.50;;;34.06;30.29
8294;BME280;4185;41.506;24.938;2022-08-19T13:00:32;93230.22;;;34.17;30.29
8294;BME280;4185;41.506;24.938;2022-08-19T13:03:00;93232.06;;;34.28;29.91
8294;BME280;4185;41.506;24.938;2022-08-19T13:05:29;93232.59;;;34.42;30.02
8294;BME280;4185;41.506;24.938;2022-08-19T13:07:59;93227.25;;;34.50;29.29
8294;BME280;4185;41.506;24.938;2022-08-19T13:10:28;93226.03;;;34.55;30.09
8294;BME280;4185;41.506;24.938;2022-08-19T13:12:57;93239.00;;;34.62;29.73
8294;BME280;4185;41.506;24.938;2022-08-19T13:15:24;93232.16;;;34.69;29.53
8294;BME280;4185;41.506;24.938;2022-08-19T13:17:54;93228.25;;;34.78;28.92
8294;BME280;4185;41.506;24.938;2022-08-19T13:20:25;93230.09;;;34.50;28.22